sensor_id;sensor_type;location;lat;lon;timestamp;P1;durP1;ratioP1;P2;durP2;ratioP2
59416;SDS011;45222;52.458;20.914;2023-04-15T00:02:03;10.60;;;8.60;;
59416;SDS011;45222;52.458;20.914;2023-04-15T00:05:58;12.30;;;8.90;;
59416;SDS011;45222;52.458;20.914;2023-04-15T00:09:44;17.80;;;9.20;;
59416;SDS011;45222;52.458;20.914;2023-04-15T00:13:29;11.70;;;9.20;;
59416;SDS011;45222;52.458;20.914;2023-04-15T00:17:15;11.00;;;8.50;;
59416;SDS011;45222;52.458;20.914;2023-04-15T00:21:01;10.50;;;8.40;;
59416;SDS011;45222;52.458;20.914;2023-04-15T00:24:47;11.10;;;8.60;;
59416;SDS011;45222;52.458;20.914;2023-04-15T00:28:32;10.90;;;8.70;;
59416;SDS011;45222;52.458;20.914;2023-04-15T00:32:17;12.30;;;9.70;;
59416;SDS011;45222;52.458;20.914;2023-04-15T00:36:05;12.70;;;9.30;;
59416;SDS011;45222;52.458;20.914;2023-04-15T00:39:51;11.00;;;8.50;;
59416;SDS011;45222;52.458;20.914;2023-04-15T00:43:36;11.50;;;9.10;;
59416;SDS011;45222;52.458;20.914;2023-04-15T00:47:21;12.20;;;8.90;;
59416;SDS011;45222;52.458;20.914;2023-04-15T00:51:07;10.30;;;8.60;;
59416;SDS011;45222;52.458;20.914;2023-04-15T00:54:53;10.70;;;9.20;;
59416;SDS011;45222;52.458;20.914;2023-04-15T00:58:38;12.10;;;8.40;;
59416;SDS011;45222;52.458;20.914;2023-04-15T01:02:23;10.80;;;8.60;;
59416;SDS011;45222;52.458;20.914;2023-04-15T01:06:09;11.20;;;9.00;;
59416;SDS011;45222;52.458;20.914;2023-04-15T01:09:55;10.30;;;9.00;;
59416;SDS011;45222;52.458;20.914;2023-04-15T01:13:40;10.70;;;8.70;;
59416;SDS011;45222;52.458;20.914;2023-04-15T01:17:26;10.30;;;8.40;;
59416;SDS011;45222;52.458;20.914;2023-04-15T01:21:11;12.10;;;8.80;;
59416;SDS011;45222;52.458;20.914;2023-04-15T01:24:58;11.90;;;9.50;;
59416;SDS011;45222;52.458;20.914;2023-04-15T01:28:50;10.90;;;9.30;;
59416;SDS011;45222;52.458;20.914;2023-04-15T01:32:35;12.10;;;8.50;;
59416;SDS011;45222;52.458;20.914;2023-04-15T01:36:20;11.60;;;8.90;;
59416;SDS011;45222;52.458;20.914;2023-04-15T01:40:07;11.30;;;9.30;;
59416;SDS011;45222;52.458;20.914;2023-04-15T01:43:53;12.70;;;10.20;;
59416;SDS011;45222;52.458;20.914;2023-04-15T01:47:39;11.50;;;9.70;;
59416;SDS011;45222;52.458;20.914;2023-04-15T01:51:24;12.00;;;9.20;;
59416;SDS011;45222;52.458;20.914;2023-04-15T01:55:10;11.80;;;9.30;;
59416;SDS011;45222;52.458;20.914;2023-04-15T01:58:56;11.70;;;9.50;;
59416;SDS011;45222;52.458;20.914;2023-04-15T02:02:41;13.20;;;10.40;;
59416;SDS011;45222;52.458;20.914;2023-04-15T02:06:27;12.30;;;9.60;;
59416;SDS011;45222;52.458;20.914;2023-04-15T02:10:12;11.30;;;9.50;;
59416;SDS011;45222;52.458;20.914;2023-04-15T02:13:59;11.60;;;9.30;;
59416;SDS011;45222;52.458;20.914;2023-04-15T02:17:44;10.70;;;9.30;;
59416;SDS011;45222;52.458;20.914;2023-04-15T02:25:17;11.80;;;10.00;;
59416;SDS011;45222;52.458;20.914;2023-04-15T02:29:03;13.40;;;10.40;;
59416;SDS011;45222;52.458;20.914;2023-04-15T02:32:49;12.50;;;9.50;;
59416;SDS011;45222;52.458;20.914;2023-04-15T02:36:34;11.90;;;9.50;;
59416;SDS011;45222;52.458;20.914;2023-04-15T02:40:19;13.30;;;10.70;;
59416;SDS011;45222;52.458;20.914;2023-04-15T02:44:05;12.60;;;10.70;;
59416;SDS011;45222;52.458;20.914;2023-04-15T02:47:52;13.40;;;10.20;;
59416;SDS011;45222;52.458;20.914;2023-04-15T02:51:37;12.20;;;9.80;;
59416;SDS011;45222;52.458;20.914;2023-04-15T02:55:22;13.10;;;9.70;;
59416;SDS011;45222;52.458;20.914;2023-04-15T02:59:08;13.10;;;10.20;;
59416;SDS011;45222;52.458;20.914;2023-04-15T03:02:57;13.50;;;11.00;;
59416;SDS011;45222;52.458;20.914;2023-04-15T03:06:45;13.70;;;11.10;;
59416;SDS011;45222;52.458;20.914;2023-04-15T03:10:30;12.90;;;10.70;;
59416;SDS011;45222;52.458;20.914;2023-04-15T03:14:16;12.80;;;9.70;;
59416;SDS011;45222;52.458;20.914;2023-04-15T03:18:01;13.30;;;9.90;;
59416;SDS011;45222;52.458;20.914;2023-04-15T03:21:46;12.00;;;9.80;;
59416;SDS011;45222;52.458;20.914;2023-04-15T03:25:31;13.00;;;10.40;;
59416;SDS011;45222;52.458;20.914;2023-04-15T03:29:17;12.90;;;10.10;;
59416;SDS011;45222;52.458;20.914;2023-04-15T03:33:03;13.70;;;10.70;;
59416;SDS011;45222;52.458;20.914;2023-04-15T03:36:48;12.40;;;10.50;;
59416;SDS011;45222;52.458;20.914;2023-04-15T03:40:33;12.90;;;10.20;;
59416;SDS011;45222;52.458;20.914;2023-04-15T03:44:18;12.90;;;10.50;;
59416;SDS011;45222;52.458;20.914;2023-04-15T03:48:04;13.50;;;11.50;;
59416;SDS011;45222;52.458;20.914;2023-04-15T03:51:49;12.90;;;10.80;;
59416;SDS011;45222;52.458;20.914;2023-04-15T03:55:35;14.30;;;10.30;;
59416;SDS011;45222;52.458;20.914;2023-04-15T03:59:20;13.40;;;10.20;;
59416;SDS011;45222;52.458;20.914;2023-04-15T04:03:05;12.90;;;10.40;;
59416;SDS011;45222;52.458;20.914;2023-04-15T04:06:51;13.40;;;11.00;;
59416;SDS011;45222;52.458;20.914;2023-04-15T04:10:36;13.00;;;10.70;;
59416;SDS011;45222;52.458;20.914;2023-04-15T04:14:21;12.10;;;10.00;;
59416;SDS011;45222;52.458;20.914;2023-04-15T04:18:11;13.20;;;10.20;;
59416;SDS011;45222;52.458;20.914;2023-04-15T04:21:56;13.20;;;10.30;;
59416;SDS011;45222;52.458;20.914;2023-04-15T04:25:42;13.50;;;11.00;;
59416;SDS011;45222;52.458;20.914;2023-04-15T04:29:27;11.70;;;9.90;;
59416;SDS011;45222;52.458;20.914;2023-04-15T04:33:12;12.10;;;9.20;;
59416;SDS011;45222;52.458;20.914;2023-04-15T04:36:57;12.10;;;8.80;;
59416;SDS011;45222;52.458;20.914;2023-04-15T04:40:43;14.60;;;9.60;;
59416;SDS011;45222;52.458;20.914;2023-04-15T04:44:28;13.50;;;10.20;;
59416;SDS011;45222;52.458;20.914;2023-04-15T04:48:14;13.50;;;10.00;;
59416;SDS011;45222;52.458;20.914;2023-04-15T04:51:59;12.40;;;9.50;;
59416;SDS011;45222;52.458;20.914;2023-04-15T04:55:45;12.00;;;9.10;;
59416;SDS011;45222;52.458;20.914;2023-04-15T04:59:32;13.30;;;10.10;;
59416;SDS011;45222;52.458;20.914;2023-04-15T05:03:17;14.00;;;11.00;;
59416;SDS011;45222;52.458;20.914;2023-04-15T05:07:02;11.80;;;9.80;;
59416;SDS011;45222;52.458;20.914;2023-04-15T05:10:48;13.60;;;10.00;;
59416;SDS011;45222;52.458;20.914;2023-04-15T05:14:33;11.10;;;9.40;;
59416;SDS011;45222;52.458;20.914;2023-04-15T05:18:18;12.00;;;10.00;;
59416;SDS011;45222;52.458;20.914;2023-04-15T05:22:03;14.10;;;10.60;;
59416;SDS011;45222;52.458;20.914;2023-04-15T05:25:48;14.80;;;11.80;;
59416;SDS011;45222;52.458;20.914;2023-04-15T05:29:33;13.60;;;11.20;;
59416;SDS011;45222;52.458;20.914;2023-04-15T05:33:19;12.50;;;11.00;;
59416;SDS011;45222;52.458;20.914;2023-04-15T05:37:04;12.60;;;9.80;;
59416;SDS011;45222;52.458;20.914;2023-04-15T05:40:49;12.50;;;9.90;;
59416;SDS011;45222;52.458;20.914;2023-04-15T05:44:34;11.90;;;10.00;;
59416;SDS011;45222;52.458;20.914;2023-04-15T05:48:19;12.40;;;10.00;;
59416;SDS011;45222;52.458;20.914;2023-04-15T05:52:05;13.00;;;11.00;;
59416;SDS011;45222;52.458;20.914;2023-04-15T05:55:50;12.70;;;10.10;;
59416;SDS011;45222;52.458;20.914;2023-04-15T05:59:35;12.30;;;10.20;;
59416;SDS011;45222;52.458;20.914;2023-04-15T06:03:21;11.60;;;9.80;;
59416;SDS011;45222;52.458;20.914;2023-04-15T06:07:06;12.30;;;10.00;;
59416;SDS011;45222;52.458;20.914;2023-04-15T06:10:51;13.80;;;9.80;;
59416;SDS011;45222;52.458;20.914;2023-04-15T06:14:36;12.60;;;9.90;;
59416;SDS011;45222;52.458;20.914;2023-04-15T06:18:23;12.40;;;10.80;;
59416;SDS011;45222;52.458;20.914;2023-04-15T06:22:08;13.50;;;10.10;;
59416;SDS011;45222;52.458;20.914;2023-04-15T06:25:53;10.80;;;9.20;;
59416;SDS011;45222;52.458;20.914;2023-04-15T06:29:38;10.60;;;8.90;;
59416;SDS011;45222;52.458;20.914;2023-04-15T06:33:24;12.10;;;9.10;;
59416;SDS011;45222;52.458;20.914;2023-04-15T06:37:09;12.00;;;9.20;;
59416;SDS011;45222;52.458;20.914;2023-04-15T06:40:58;11.50;;;9.50;;
59416;SDS011;45222;52.458;20.914;2023-04-15T06:44:44;13.20;;;10.00;;
59416;SDS011;45222;52.458;20.914;2023-04-15T06:48:29;12.60;;;9.90;;
59416;SDS011;45222;52.458;20.914;2023-04-15T06:52:14;12.70;;;9.80;;
59416;SDS011;45222;52.458;20.914;2023-04-15T06:55:59;13.90;;;9.60;;
59416;SDS011;45222;52.458;20.914;2023-04-15T06:59:44;12.10;;;9.60;;
59416;SDS011;45222;52.458;20.914;2023-04-15T07:03:30;12.00;;;9.70;;
59416;SDS011;45222;52.458;20.914;2023-04-15T07:07:15;12.20;;;10.00;;
59416;SDS011;45222;52.458;20.914;2023-04-15T07:11:01;12.30;;;9.40;;
59416;SDS011;45222;52.458;20.914;2023-04-15T07:14:46;11.10;;;9.40;;
59416;SDS011;45222;52.458;20.914;2023-04-15T07:18:31;11.30;;;9.00;;
59416;SDS011;45222;52.458;20.914;2023-04-15T07:22:17;11.20;;;9.30;;
59416;SDS011;45222;52.458;20.914;2023-04-15T07:26:02;12.70;;;9.70;;
59416;SDS011;45222;52.458;20.914;2023-04-15T07:29:47;10.70;;;8.70;;
59416;SDS011;45222;52.458;20.914;2023-04-15T07:33:34;10.90;;;8.50;;
59416;SDS011;45222;52.458;20.914;2023-04-15T07:37:20;11.60;;;8.40;;
59416;SDS011;45222;52.458;20.914;2023-04-15T07:41:05;10.50;;;8.30;;
59416;SDS011;45222;52.458;20.914;2023-04-15T07:44:50;9.60;;;7.70;;
59416;SDS011;45222;52.458;20.914;2023-04-15T07:48:35;12.00;;;8.80;;
59416;SDS011;45222;52.458;20.914;2023-04-15T07:52:20;11.40;;;8.10;;
59416;SDS011;45222;52.458;20.914;2023-04-15T07:56:09;9.00;;;6.90;;
59416;SDS011;45222;52.458;20.914;2023-04-15T07:59:59;9.20;;;7.10;;
59416;SDS011;45222;52.458;20.914;2023-04-15T08:03:46;10.40;;;7.10;;
59416;SDS011;45222;52.458;20.914;2023-04-15T08:07:31;9.50;;;6.90;;
59416;SDS011;45222;52.458;20.914;2023-04-15T08:11:17;8.30;;;5.90;;
59416;SDS011;45222;52.458;20.914;2023-04-15T08:15:02;9.80;;;7.00;;
59416;SDS011;45222;52.458;20.914;2023-04-15T08:18:49;9.80;;;7.20;;
59416;SDS011;45222;52.458;20.914;2023-04-15T08:22:35;8.90;;;6.80;;
59416;SDS011;45222;52.458;20.914;2023-04-15T08:26:21;9.30;;;6.60;;
59416;SDS011;45222;52.458;20.914;2023-04-15T08:30:07;8.30;;;6.10;;
59416;SDS011;45222;52.458;20.914;2023-04-15T08:33:53;8.50;;;6.20;;
59416;SDS011;45222;52.458;20.914;2023-04-15T08:37:39;8.10;;;5.90;;
59416;SDS011;45222;52.458;20.914;2023-04-15T08:41:25;8.90;;;5.90;;
59416;SDS011;45222;52.458;20.914;2023-04-15T08:45:17;8.50;;;5.70;;
59416;SDS011;45222;52.458;20.914;2023-04-15T08:49:03;8.70;;;6.60;;
59416;SDS011;45222;52.458;20.914;2023-04-15T08:52:54;9.70;;;6.30;;
59416;SDS011;45222;52.458;20.914;2023-04-15T08:56:41;8.30;;;6.10;;
59416;SDS011;45222;52.458;20.914;2023-04-15T09:00:27;8.20;;;5.70;;
59416;SDS011;45222;52.458;20.914;2023-04-15T09:04:13;8.30;;;5.50;;
59416;SDS011;45222;52.458;20.914;2023-04-15T09:07:59;8.00;;;5.50;;
59416;SDS011;45222;52.458;20.914;2023-04-15T09:11:44;8.50;;;6.10;;
59416;SDS011;45222;52.458;20.914;2023-04-15T09:15:32;7.50;;;5.50;;
59416;SDS011;45222;52.458;20.914;2023-04-15T09:19:21;8.10;;;5.50;;
59416;SDS011;45222;52.458;20.914;2023-04-15T09:23:11;7.70;;;5.50;;
59416;SDS011;45222;52.458;20.914;2023-04-15T09:26:57;8.40;;;5.70;;
59416;SDS011;45222;52.458;20.914;2023-04-15T09:30:43;8.30;;;5.70;;
59416;SDS011;45222;52.458;20.914;2023-04-15T09:34:35;6.70;;;4.80;;
59416;SDS011;45222;52.458;20.914;2023-04-15T09:38:21;8.30;;;5.00;;
59416;SDS011;45222;52.458;20.914;2023-04-15T09:42:06;7.40;;;5.00;;
59416;SDS011;45222;52.458;20.914;2023-04-15T09:45:52;7.40;;;4.50;;
59416;SDS011;45222;52.458;20.914;2023-04-15T09:49:38;7.10;;;4.60;;
59416;SDS011;45222;52.458;20.914;2023-04-15T09:53:38;7.50;;;4.90;;
59416;SDS011;45222;52.458;20.914;2023-04-15T09:57:29;6.60;;;4.20;;
59416;SDS011;45222;52.458;20.914;2023-04-15T10:01:25;5.80;;;3.90;;
59416;SDS011;45222;52.458;20.914;2023-04-15T10:05:15;7.30;;;4.20;;
59416;SDS011;45222;52.458;20.914;2023-04-15T10:09:00;6.10;;;4.00;;
59416;SDS011;45222;52.458;20.914;2023-04-15T10:12:45;6.90;;;4.20;;
59416;SDS011;45222;52.458;20.914;2023-04-15T10:16:31;6.20;;;3.90;;
59416;SDS011;45222;52.458;20.914;2023-04-15T10:20:19;7.00;;;4.50;;
59416;SDS011;45222;52.458;20.914;2023-04-15T10:24:05;6.80;;;4.30;;
59416;SDS011;45222;52.458;20.914;2023-04-15T10:27:51;7.30;;;4.10;;
59416;SDS011;45222;52.458;20.914;2023-04-15T10:31:37;8.50;;;3.90;;
59416;SDS011;45222;52.458;20.914;2023-04-15T10:35:24;6.90;;;3.60;;
59416;SDS011;45222;52.458;20.914;2023-04-15T10:43:24;7.30;;;4.20;;
59416;SDS011;45222;52.458;20.914;2023-04-15T10:47:10;6.40;;;4.40;;
59416;SDS011;45222;52.458;20.914;2023-04-15T10:50:56;8.10;;;4.60;;
59416;SDS011;45222;52.458;20.914;2023-04-15T10:54:44;7.10;;;3.80;;
59416;SDS011;45222;52.458;20.914;2023-04-15T10:58:30;7.20;;;4.20;;
59416;SDS011;45222;52.458;20.914;2023-04-15T11:02:33;7.10;;;4.20;;
59416;SDS011;45222;52.458;20.914;2023-04-15T11:06:23;6.20;;;4.20;;
59416;SDS011;45222;52.458;20.914;2023-04-15T11:14:39;6.50;;;4.20;;
59416;SDS011;45222;52.458;20.914;2023-04-15T11:18:26;6.50;;;4.20;;
59416;SDS011;45222;52.458;20.914;2023-04-15T11:22:17;6.00;;;3.90;;
59416;SDS011;45222;52.458;20.914;2023-04-15T11:26:03;5.60;;;3.60;;
59416;SDS011;45222;52.458;20.914;2023-04-15T11:29:51;6.60;;;3.60;;
59416;SDS011;45222;52.458;20.914;2023-04-15T11:33:37;7.00;;;3.70;;
59416;SDS011;45222;52.458;20.914;2023-04-15T11:37:28;5.80;;;3.70;;
59416;SDS011;45222;52.458;20.914;2023-04-15T11:41:14;5.90;;;3.30;;
59416;SDS011;45222;52.458;20.914;2023-04-15T11:45:08;6.90;;;3.20;;
59416;SDS011;45222;52.458;20.914;2023-04-15T11:48:54;5.60;;;3.40;;
59416;SDS011;45222;52.458;20.914;2023-04-15T11:52:39;5.40;;;3.30;;
59416;SDS011;45222;52.458;20.914;2023-04-15T11:56:24;6.00;;;3.70;;
59416;SDS011;45222;52.458;20.914;2023-04-15T12:00:11;6.20;;;3.40;;
59416;SDS011;45222;52.458;20.914;2023-04-15T12:03:59;5.50;;;3.50;;
59416;SDS011;45222;52.458;20.914;2023-04-15T12:07:58;6.20;;;3.30;;
59416;SDS011;45222;52.458;20.914;2023-04-15T12:11:46;5.70;;;3.40;;
59416;SDS011;45222;52.458;20.914;2023-04-15T12:15:36;4.50;;;3.00;;
59416;SDS011;45222;52.458;20.914;2023-04-15T12:19:22;4.80;;;3.10;;
59416;SDS011;45222;52.458;20.914;2023-04-15T12:23:08;6.20;;;3.40;;
59416;SDS011;45222;52.458;20.914;2023-04-15T12:26:55;5.70;;;3.40;;
59416;SDS011;45222;52.458;20.914;2023-04-15T12:30:48;5.10;;;3.10;;
59416;SDS011;45222;52.458;20.914;2023-04-15T12:34:35;6.20;;;3.30;;
59416;SDS011;45222;52.458;20.914;2023-04-15T12:38:21;5.20;;;3.30;;
59416;SDS011;45222;52.458;20.914;2023-04-15T12:42:06;6.50;;;3.40;;
59416;SDS011;45222;52.458;20.914;2023-04-15T12:45:52;5.90;;;3.70;;
59416;SDS011;45222;52.458;20.914;2023-04-15T12:49:38;7.70;;;4.10;;
59416;SDS011;45222;52.458;20.914;2023-04-15T12:53:24;5.80;;;3.20;;
59416;SDS011;45222;52.458;20.914;2023-04-15T12:57:10;6.00;;;3.10;;
59416;SDS011;45222;52.458;20.914;2023-04-15T13:00:55;5.30;;;2.90;;
59416;SDS011;45222;52.458;20.914;2023-04-15T13:04:40;9.10;;;3.10;;
59416;SDS011;45222;52.458;20.914;2023-04-15T13:08:25;4.90;;;2.80;;
59416;SDS011;45222;52.458;20.914;2023-04-15T13:12:10;5.90;;;2.90;;
59416;SDS011;45222;52.458;20.914;2023-04-15T13:15:56;5.70;;;2.60;;
59416;SDS011;45222;52.458;20.914;2023-04-15T13:19:42;6.10;;;2.60;;
59416;SDS011;45222;52.458;20.914;2023-04-15T13:23:27;5.50;;;3.10;;
59416;SDS011;45222;52.458;20.914;2023-04-15T13:27:12;4.80;;;2.40;;
59416;SDS011;45222;52.458;20.914;2023-04-15T13:30:57;3.80;;;1.90;;
59416;SDS011;45222;52.458;20.914;2023-04-15T13:34:44;3.20;;;1.80;;
59416;SDS011;45222;52.458;20.914;2023-04-15T13:38:29;4.30;;;2.00;;
59416;SDS011;45222;52.458;20.914;2023-04-15T13:42:15;3.60;;;2.10;;
59416;SDS011;45222;52.458;20.914;2023-04-15T13:46:01;3.60;;;2.00;;
59416;SDS011;45222;52.458;20.914;2023-04-15T13:49:47;4.70;;;2.80;;
59416;SDS011;45222;52.458;20.914;2023-04-15T13:53:32;7.90;;;4.40;;
59416;SDS011;45222;52.458;20.914;2023-04-15T13:57:18;10.10;;;6.30;;
59416;SDS011;45222;52.458;20.914;2023-04-15T14:01:04;8.80;;;5.30;;
59416;SDS011;45222;52.458;20.914;2023-04-15T14:04:49;8.80;;;4.80;;
59416;SDS011;45222;52.458;20.914;2023-04-15T14:08:34;5.50;;;3.20;;
59416;SDS011;45222;52.458;20.914;2023-04-15T14:12:19;5.30;;;3.00;;
59416;SDS011;45222;52.458;20.914;2023-04-15T14:16:05;6.10;;;2.80;;
59416;SDS011;45222;52.458;20.914;2023-04-15T14:19:51;5.80;;;3.30;;
59416;SDS011;45222;52.458;20.914;2023-04-15T14:23:37;6.40;;;3.30;;
59416;SDS011;45222;52.458;20.914;2023-04-15T14:27:22;6.00;;;3.20;;
59416;SDS011;45222;52.458;20.914;2023-04-15T14:31:07;5.90;;;2.90;;
59416;SDS011;45222;52.458;20.914;2023-04-15T14:34:52;5.90;;;2.40;;
59416;SDS011;45222;52.458;20.914;2023-04-15T14:38:37;3.80;;;2.10;;
59416;SDS011;45222;52.458;20.914;2023-04-15T14:42:22;3.90;;;2.00;;
59416;SDS011;45222;52.458;20.914;2023-04-15T14:46:09;4.70;;;2.10;;
59416;SDS011;45222;52.458;20.914;2023-04-15T14:49:54;5.90;;;2.30;;
59416;SDS011;45222;52.458;20.914;2023-04-15T14:53:39;4.80;;;1.70;;
59416;SDS011;45222;52.458;20.914;2023-04-15T14:57:25;4.30;;;2.10;;
59416;SDS011;45222;52.458;20.914;2023-04-15T15:01:10;5.20;;;2.20;;
59416;SDS011;45222;52.458;20.914;2023-04-15T15:04:56;5.00;;;2.40;;
59416;SDS011;45222;52.458;20.914;2023-04-15T15:08:42;4.50;;;2.30;;
59416;SDS011;45222;52.458;20.914;2023-04-15T15:12:27;4.60;;;2.40;;
59416;SDS011;45222;52.458;20.914;2023-04-15T15:16:12;4.10;;;2.10;;
59416;SDS011;45222;52.458;20.914;2023-04-15T15:19:57;4.40;;;2.10;;
59416;SDS011;45222;52.458;20.914;2023-04-15T15:23:43;5.90;;;2.50;;
59416;SDS011;45222;52.458;20.914;2023-04-15T15:27:28;4.10;;;2.30;;
59416;SDS011;45222;52.458;20.914;2023-04-15T15:31:14;4.40;;;2.20;;
59416;SDS011;45222;52.458;20.914;2023-04-15T15:34:59;4.00;;;2.10;;
59416;SDS011;45222;52.458;20.914;2023-04-15T15:38:44;4.40;;;2.00;;
59416;SDS011;45222;52.458;20.914;2023-04-15T15:42:30;5.30;;;2.10;;
59416;SDS011;45222;52.458;20.914;2023-04-15T15:46:16;3.80;;;2.00;;
59416;SDS011;45222;52.458;20.914;2023-04-15T15:50:01;3.60;;;2.00;;
59416;SDS011;45222;52.458;20.914;2023-04-15T15:53:47;3.90;;;2.00;;
59416;SDS011;45222;52.458;20.914;2023-04-15T15:57:33;3.70;;;2.00;;
59416;SDS011;45222;52.458;20.914;2023-04-15T16:01:19;5.00;;;2.10;;
59416;SDS011;45222;52.458;20.914;2023-04-15T16:05:05;4.90;;;2.30;;
59416;SDS011;45222;52.458;20.914;2023-04-15T16:08:50;4.00;;;2.00;;
59416;SDS011;45222;52.458;20.914;2023-04-15T16:12:35;4.40;;;2.10;;
59416;SDS011;45222;52.458;20.914;2023-04-15T16:16:21;4.90;;;2.20;;
59416;SDS011;45222;52.458;20.914;2023-04-15T16:20:07;4.40;;;2.20;;
59416;SDS011;45222;52.458;20.914;2023-04-15T16:23:53;5.60;;;2.50;;
59416;SDS011;45222;52.458;20.914;2023-04-15T16:27:38;3.80;;;2.10;;
59416;SDS011;45222;52.458;20.914;2023-04-15T16:31:25;4.70;;;2.50;;
59416;SDS011;45222;52.458;20.914;2023-04-15T16:35:12;5.10;;;2.50;;
59416;SDS011;45222;52.458;20.914;2023-04-15T16:38:59;4.00;;;2.20;;
59416;SDS011;45222;52.458;20.914;2023-04-15T16:42:44;5.70;;;2.50;;
59416;SDS011;45222;52.458;20.914;2023-04-15T16:46:29;3.60;;;2.10;;
59416;SDS011;45222;52.458;20.914;2023-04-15T16:50:15;4.30;;;2.20;;
59416;SDS011;45222;52.458;20.914;2023-04-15T16:54:00;5.20;;;2.60;;
59416;SDS011;45222;52.458;20.914;2023-04-15T16:57:45;4.10;;;2.20;;
59416;SDS011;45222;52.458;20.914;2023-04-15T17:01:30;4.40;;;2.40;;
59416;SDS011;45222;52.458;20.914;2023-04-15T17:05:15;4.80;;;2.00;;
59416;SDS011;45222;52.458;20.914;2023-04-15T17:09:01;4.50;;;2.40;;
59416;SDS011;45222;52.458;20.914;2023-04-15T17:12:46;4.90;;;2.40;;
59416;SDS011;45222;52.458;20.914;2023-04-15T17:16:34;5.30;;;2.40;;
59416;SDS011;45222;52.458;20.914;2023-04-15T17:20:20;5.40;;;2.60;;
59416;SDS011;45222;52.458;20.914;2023-04-15T17:24:05;5.40;;;2.80;;
59416;SDS011;45222;52.458;20.914;2023-04-15T17:27:50;4.80;;;2.80;;
59416;SDS011;45222;52.458;20.914;2023-04-15T17:31:35;7.80;;;3.30;;
59416;SDS011;45222;52.458;20.914;2023-04-15T17:35:21;6.10;;;2.90;;
59416;SDS011;45222;52.458;20.914;2023-04-15T17:39:08;5.80;;;3.00;;
59416;SDS011;45222;52.458;20.914;2023-04-15T17:42:54;5.20;;;2.70;;
59416;SDS011;45222;52.458;20.914;2023-04-15T17:46:41;6.90;;;3.00;;
59416;SDS011;45222;52.458;20.914;2023-04-15T17:50:26;5.90;;;3.00;;
59416;SDS011;45222;52.458;20.914;2023-04-15T17:54:11;7.00;;;3.40;;
59416;SDS011;45222;52.458;20.914;2023-04-15T17:57:56;5.50;;;3.00;;
59416;SDS011;45222;52.458;20.914;2023-04-15T18:01:42;5.60;;;2.80;;
59416;SDS011;45222;52.458;20.914;2023-04-15T18:05:27;5.30;;;2.70;;
59416;SDS011;45222;52.458;20.914;2023-04-15T18:09:13;6.50;;;3.20;;
59416;SDS011;45222;52.458;20.914;2023-04-15T18:12:59;5.80;;;3.10;;
59416;SDS011;45222;52.458;20.914;2023-04-15T18:16:45;8.20;;;3.70;;
59416;SDS011;45222;52.458;20.914;2023-04-15T18:20:31;7.30;;;3.80;;
59416;SDS011;45222;52.458;20.914;2023-04-15T18:24:18;8.30;;;3.80;;
59416;SDS011;45222;52.458;20.914;2023-04-15T18:28:03;7.40;;;4.20;;
59416;SDS011;45222;52.458;20.914;2023-04-15T18:31:49;7.80;;;4.40;;
59416;SDS011;45222;52.458;20.914;2023-04-15T18:35:34;8.80;;;4.80;;
59416;SDS011;45222;52.458;20.914;2023-04-15T18:39:19;8.50;;;4.60;;
59416;SDS011;45222;52.458;20.914;2023-04-15T18:43:04;7.60;;;4.20;;
59416;SDS011;45222;52.458;20.914;2023-04-15T18:46:52;7.10;;;4.20;;
59416;SDS011;45222;52.458;20.914;2023-04-15T18:50:37;7.30;;;4.20;;
59416;SDS011;45222;52.458;20.914;2023-04-15T18:54:22;6.90;;;3.80;;
59416;SDS011;45222;52.458;20.914;2023-04-15T18:58:08;7.30;;;4.10;;
59416;SDS011;45222;52.458;20.914;2023-04-15T19:01:53;6.80;;;3.60;;
59416;SDS011;45222;52.458;20.914;2023-04-15T19:05:39;7.40;;;3.80;;
59416;SDS011;45222;52.458;20.914;2023-04-15T19:09:24;8.60;;;3.90;;
59416;SDS011;45222;52.458;20.914;2023-04-15T19:13:11;8.70;;;4.20;;
59416;SDS011;45222;52.458;20.914;2023-04-15T19:16:56;7.10;;;3.70;;
59416;SDS011;45222;52.458;20.914;2023-04-15T19:20:41;6.80;;;3.50;;
59416;SDS011;45222;52.458;20.914;2023-04-15T19:24:27;9.10;;;3.70;;
59416;SDS011;45222;52.458;20.914;2023-04-15T19:28:15;7.00;;;3.90;;
59416;SDS011;45222;52.458;20.914;2023-04-15T19:32:31;7.70;;;3.80;;
59416;SDS011;45222;52.458;20.914;2023-04-15T19:36:23;7.00;;;3.90;;
59416;SDS011;45222;52.458;20.914;2023-04-15T19:40:09;7.30;;;3.90;;
59416;SDS011;45222;52.458;20.914;2023-04-15T19:43:55;7.20;;;4.00;;
59416;SDS011;45222;52.458;20.914;2023-04-15T19:47:40;7.90;;;4.10;;
59416;SDS011;45222;52.458;20.914;2023-04-15T19:51:26;7.80;;;4.20;;
59416;SDS011;45222;52.458;20.914;2023-04-15T19:55:11;7.80;;;4.40;;
59416;SDS011;45222;52.458;20.914;2023-04-15T19:58:56;7.40;;;4.10;;
59416;SDS011;45222;52.458;20.914;2023-04-15T20:02:42;7.90;;;4.10;;
59416;SDS011;45222;52.458;20.914;2023-04-15T20:06:27;7.60;;;3.40;;
59416;SDS011;45222;52.458;20.914;2023-04-15T20:10:15;6.10;;;3.50;;
59416;SDS011;45222;52.458;20.914;2023-04-15T20:14:00;7.20;;;4.30;;
59416;SDS011;45222;52.458;20.914;2023-04-15T20:17:46;7.40;;;3.60;;
59416;SDS011;45222;52.458;20.914;2023-04-15T20:21:31;6.00;;;3.70;;
59416;SDS011;45222;52.458;20.914;2023-04-15T20:25:16;6.20;;;3.30;;
59416;SDS011;45222;52.458;20.914;2023-04-15T20:29:02;7.50;;;4.00;;
59416;SDS011;45222;52.458;20.914;2023-04-15T20:32:47;7.30;;;4.30;;
59416;SDS011;45222;52.458;20.914;2023-04-15T20:36:32;7.10;;;4.30;;
59416;SDS011;45222;52.458;20.914;2023-04-15T20:40:17;6.50;;;3.10;;
59416;SDS011;45222;52.458;20.914;2023-04-15T20:44:02;5.20;;;3.10;;
59416;SDS011;45222;52.458;20.914;2023-04-15T20:47:48;6.40;;;3.50;;
59416;SDS011;45222;52.458;20.914;2023-04-15T20:51:33;6.50;;;3.50;;
59416;SDS011;45222;52.458;20.914;2023-04-15T20:55:20;5.90;;;3.30;;
59416;SDS011;45222;52.458;20.914;2023-04-15T20:59:05;6.90;;;3.40;;
59416;SDS011;45222;52.458;20.914;2023-04-15T21:02:50;6.50;;;3.20;;
59416;SDS011;45222;52.458;20.914;2023-04-15T21:06:36;5.90;;;3.30;;
59416;SDS011;45222;52.458;20.914;2023-04-15T21:10:21;6.70;;;3.70;;
59416;SDS011;45222;52.458;20.914;2023-04-15T21:14:07;6.70;;;3.30;;
59416;SDS011;45222;52.458;20.914;2023-04-15T21:17:53;5.60;;;3.40;;
59416;SDS011;45222;52.458;20.914;2023-04-15T21:21:38;5.90;;;3.10;;
59416;SDS011;45222;52.458;20.914;2023-04-15T21:25:23;5.80;;;3.30;;
59416;SDS011;45222;52.458;20.914;2023-04-15T21:29:08;5.50;;;3.10;;
59416;SDS011;45222;52.458;20.914;2023-04-15T21:32:53;5.90;;;3.20;;
59416;SDS011;45222;52.458;20.914;2023-04-15T21:36:38;5.70;;;3.00;;
59416;SDS011;45222;52.458;20.914;2023-04-15T21:40:24;7.30;;;3.30;;
59416;SDS011;45222;52.458;20.914;2023-04-15T21:44:09;6.50;;;3.00;;
59416;SDS011;45222;52.458;20.914;2023-04-15T21:47:54;5.70;;;3.20;;
59416;SDS011;45222;52.458;20.914;2023-04-15T21:51:43;6.10;;;3.00;;
59416;SDS011;45222;52.458;20.914;2023-04-15T21:55:31;6.50;;;3.10;;
59416;SDS011;45222;52.458;20.914;2023-04-15T21:59:17;6.70;;;3.30;;
59416;SDS011;45222;52.458;20.914;2023-04-15T22:03:02;6.30;;;3.30;;
59416;SDS011;45222;52.458;20.914;2023-04-15T22:06:48;6.20;;;3.40;;
59416;SDS011;45222;52.458;20.914;2023-04-15T22:10:34;6.90;;;3.00;;
59416;SDS011;45222;52.458;20.914;2023-04-15T22:14:21;7.60;;;3.40;;
59416;SDS011;45222;52.458;20.914;2023-04-15T22:18:06;5.40;;;2.90;;
59416;SDS011;45222;52.458;20.914;2023-04-15T22:21:51;7.30;;;3.50;;
59416;SDS011;45222;52.458;20.914;2023-04-15T22:25:36;6.50;;;3.40;;